sensor_id;sensor_type;location;lat;lon;timestamp;pressure;altitude;pressure_sealevel;temperature;humidity
14612;BME280;7392;52.078;11.650;2023-01-10T00:02:01;100100.88;;;4.73;100.00
14612;BME280;7392;52.078;11.650;2023-01-10T00:04:30;100108.75;;;4.73;100.00
14612;BME280;7392;52.078;11.650;2023-01-10T00:06:57;100112.28;;;4.75;100.00
14612;BME280;7392;52.078;11.650;2023-01-10T00:09:25;100111.41;;;4.74;100.00
14612;BME280;7392;52.078;11.650;2023-01-10T00:11:52;100120.19;;;4.76;100.00
14612;BME280;7392;52.078;11.650;2023-01-10T00:14:38;100125.50;;;4.78;100.00
14612;BME280;7392;52.078;11.650;2023-01-10T00:17:05;100123.75;;;4.78;100.00
14612;BME280;7392;52.078;11.650;2023-01-10T00:19:34;100128.13;;;4.79;100.00
14612;BME280;7392;52.078;11.650;2023-01-10T00:22:02;100132.56;;;4.80;100.00
14612;BME280;7392;52.078;11.650;2023-01-10T00:24:38;100145.72;;;4.80;100.00
14612;BME280;7392;52.078;11.650;2023-01-10T00:27:07;100143.94;;;4.81;100.00
14612;BME280;7392;52.078;11.650;2023-01-10T00:29:38;100144.81;;;4.78;100.00
14612;BME280;7392;52.078;11.650;2023-01-10T00:32:06;100148.31;;;4.79;100.00
14612;BME280;7392;52.078;11.650;2023-01-10T00:34:35;100143.91;;;4.78;100.00
14612;BME280;7392;52.078;11.650;2023-01-10T00:37:02;100151.78;;;4.76;100.00
14612;BME280;7392;52.078;11.650;2023-01-10T00:39:30;100150.00;;;4.74;100.00
14612;BME280;7392;52.078;11.650;2023-01-10T00:41:57;100151.75;;;4.72;100.00
14612;BME280;7392;52.078;11.650;2023-01-10T00:44:43;100165.72;;;4.69;100.00
14612;BME280;7392;52.078;11.650;2023-01-10T00:47:12;100170.94;;;4.66;100.00
14612;BME280;7392;52.078;11.650;2023-01-10T00:49:41;100168.31;;;4.63;100.00
14612;BME280;7392;52.078;11.650;2023-01-10T00:52:09;100170.88;;;4.60;100.00
14612;BME280;7392;52.078;11.650;2023-01-10T00:54:37;100180.47;;;4.56;100.00
14612;BME280;7392;52.078;11.650;2023-01-10T00:57:04;100183.03;;;4.52;100.00
14612;BME280;7392;52.078;11.650;2023-01-10T00:59:32;100192.63;;;4.46;100.00
14612;BME280;7392;52.078;11.650;2023-01-10T01:01:59;100195.19;;;4.42;100.00
14612;BME280;7392;52.078;11.650;2023-01-10T01:04:27;100198.63;;;4.38;100.00
14612;BME280;7392;52.078;11.650;2023-01-10T01:07:01;100209.06;;;4.33;100.00
14612;BME280;7392;52.078;11.650;2023-01-10T01:09:28;100211.59;;;4.27;100.00
14612;BME280;7392;52.078;11.650;2023-01-10T01:11:56;100216.78;;;4.21;100.00
14612;BME280;7392;52.078;11.650;2023-01-10T01:14:24;100235.06;;;4.15;100.00
14612;BME280;7392;52.078;11.650;2023-01-10T01:16:52;100234.13;;;4.09;100.00
14612;BME280;7392;52.078;11.650;2023-01-10T01:19:20;100245.47;;;4.05;100.00
14612;BME280;7392;52.078;11.650;2023-01-10T01:21:48;100244.50;;;4.00;100.00
14612;BME280;7392;52.078;11.650;2023-01-10T01:24:16;100254.06;;;3.97;100.00
14612;BME280;7392;52.078;11.650;2023-01-10T01:26:44;100256.63;;;3.92;100.00
14612;BME280;7392;52.078;11.650;2023-01-10T01:29:12;100260.06;;;3.88;100.00
14612;BME280;7392;52.078;11.650;2023-01-10T01:31:39;100255.56;;;3.82;100.00
14612;BME280;7392;52.078;11.650;2023-01-10T01:34:07;100261.63;;;3.78;100.00
14612;BME280;7392;52.078;11.650;2023-01-10T01:36:34;100274.72;;;3.75;100.00
14612;BME280;7392;52.078;11.650;2023-01-10T01:39:02;100272.03;;;3.72;100.00
14612;BME280;7392;52.078;11.650;2023-01-10T01:41:32;100275.50;;;3.69;100.00
14612;BME280;7392;52.078;11.650;2023-01-10T01:44:18;100273.69;;;3.67;100.00
14612;BME280;7392;52.078;11.650;2023-01-10T01:46:49;100273.66;;;3.65;100.00
14612;BME280;7392;52.078;11.650;2023-01-10T01:49:22;100280.66;;;3.65;100.00
14612;BME280;7392;52.078;11.650;2023-01-10T01:51:54;100286.75;;;3.64;100.00
14612;BME280;7392;52.078;11.650;2023-01-10T01:54:25;100281.50;;;3.62;100.00
14612;BME280;7392;52.078;11.650;2023-01-10T01:56:58;100286.75;;;3.62;100.00
14612;BME280;7392;52.078;11.650;2023-01-10T01:59:29;100289.34;;;3.61;100.00
14612;BME280;7392;52.078;11.650;2023-01-10T02:02:03;100305.91;;;3.58;100.00
14612;BME280;7392;52.078;11.650;2023-01-10T02:04:38;100307.69;;;3.59;100.00
14612;BME280;7392;52.078;11.650;2023-01-10T02:07:09;100302.38;;;3.56;100.00
14612;BME280;7392;52.078;11.650;2023-01-10T02:09:40;100316.34;;;3.55;100.00
14612;BME280;7392;52.078;11.650;2023-01-10T02:12:11;100319.84;;;3.54;100.00
14612;BME280;7392;52.078;11.650;2023-01-10T02:14:39;100325.09;;;3.54;100.00
14612;BME280;7392;52.078;11.650;2023-01-10T02:17:09;100323.34;;;3.54;100.00
14612;BME280;7392;52.078;11.650;2023-01-10T02:19:43;100330.41;;;3.55;100.00
14612;BME280;7392;52.078;11.650;2023-01-10T02:22:32;100328.63;;;3.56;100.00
14612;BME280;7392;52.078;11.650;2023-01-10T02:25:42;100325.19;;;3.57;100.00
14612;BME280;7392;52.078;11.650;2023-01-10T02:28:34;100335.69;;;3.57;100.00
14612;BME280;7392;52.078;11.650;2023-01-10T02:31:18;100342.69;;;3.58;100.00
14612;BME280;7392;52.078;11.650;2023-01-10T02:33:56;100343.59;;;3.60;100.00
14612;BME280;7392;52.078;11.650;2023-01-10T02:36:33;100349.75;;;3.61;100.00
14612;BME280;7392;52.078;11.650;2023-01-10T02:39:05;100345.41;;;3.63;100.00
14612;BME280;7392;52.078;11.650;2023-01-10T02:41:41;100353.34;;;3.66;100.00
14612;BME280;7392;52.078;11.650;2023-01-10T02:44:18;100355.19;;;3.70;100.00
14612;BME280;7392;52.078;11.650;2023-01-10T02:46:47;100350.88;;;3.73;100.00
14612;BME280;7392;52.078;11.650;2023-01-10T02:49:16;100356.22;;;3.78;100.00
14612;BME280;7392;52.078;11.650;2023-01-10T02:51:44;100365.94;;;3.84;100.00
14612;BME280;7392;52.078;11.650;2023-01-10T02:54:14;100371.25;;;3.87;100.00
14612;BME280;7392;52.078;11.650;2023-01-10T02:56:57;100373.06;;;3.89;100.00
14612;BME280;7392;52.078;11.650;2023-01-10T02:59:56;100373.97;;;3.90;100.00
14612;BME280;7392;52.078;11.650;2023-01-10T03:02:38;100384.56;;;3.95;100.00
14612;BME280;7392;52.078;11.650;2023-01-10T03:05:17;100399.47;;;3.96;100.00
14612;BME280;7392;52.078;11.650;2023-01-10T03:07:52;100389.84;;;3.98;100.00
14612;BME280;7392;52.078;11.650;2023-01-10T03:10:24;100389.84;;;3.98;100.00
14612;BME280;7392;52.078;11.650;2023-01-10T03:12:58;100394.28;;;3.99;100.00
14612;BME280;7392;52.078;11.650;2023-01-10T03:15:30;100396.06;;;4.00;100.00
14612;BME280;7392;52.078;11.650;2023-01-10T03:18:01;100403.06;;;4.01;100.00
14612;BME280;7392;52.078;11.650;2023-01-10T03:20:34;100407.47;;;4.02;100.00
14612;BME280;7392;52.078;11.650;2023-01-10T03:23:04;100409.19;;;4.01;100.00
14612;BME280;7392;52.078;11.650;2023-01-10T03:25:35;100411.81;;;4.00;100.00
14612;BME280;7392;52.078;11.650;2023-01-10T03:28:05;100421.47;;;4.01;100.00
14612;BME280;7392;52.078;11.650;2023-01-10T03:30:39;100428.44;;;3.99;100.00
14612;BME280;7392;52.078;11.650;2023-01-10T03:33:10;100429.28;;;3.98;100.00
14612;BME280;7392;52.078;11.650;2023-01-10T03:35:53;100435.38;;;3.95;100.00
14612;BME280;7392;52.078;11.650;2023-01-10T03:38:28;100428.28;;;3.92;100.00
14612;BME280;7392;52.078;11.650;2023-01-10T03:41:07;100435.28;;;3.90;100.00
14612;BME280;7392;52.078;11.650;2023-01-10T03:43:43;100444.91;;;3.90;100.00
14612;BME280;7392;52.078;11.650;2023-01-10T03:46:34;100451.88;;;3.89;100.00
14612;BME280;7392;52.078;11.650;2023-01-10T03:49:04;100458.00;;;3.88;100.00
14612;BME280;7392;52.078;11.650;2023-01-10T03:51:34;100457.09;;;3.86;100.00
14612;BME280;7392;52.078;11.650;2023-01-10T03:54:04;100469.34;;;3.86;100.00
14612;BME280;7392;52.078;11.650;2023-01-10T03:56:42;100467.59;;;3.86;100.00
14612;BME280;7392;52.078;11.650;2023-01-10T03:59:10;100469.28;;;3.84;100.00
14612;BME280;7392;52.078;11.650;2023-01-10T04:01:38;100474.53;;;3.84;100.00
14612;BME280;7392;52.078;11.650;2023-01-10T04:04:05;100485.06;;;3.84;100.00
14612;BME280;7392;52.078;11.650;2023-01-10T04:06:34;100483.28;;;3.82;100.00
14612;BME280;7392;52.078;11.650;2023-01-10T04:09:02;100498.16;;;3.81;100.00
14612;BME280;7392;52.078;11.650;2023-01-10T04:11:30;100501.66;;;3.82;100.00
14612;BME280;7392;52.078;11.650;2023-01-10T04:13:58;100492.88;;;3.80;100.00
14612;BME280;7392;52.078;11.650;2023-01-10T04:16:25;100505.09;;;3.78;100.00
14612;BME280;7392;52.078;11.650;2023-01-10T04:18:53;100511.16;;;3.75;100.00
14612;BME280;7392;52.078;11.650;2023-01-10T04:21:20;100522.50;;;3.72;100.00
14612;BME280;7392;52.078;11.650;2023-01-10T04:23:49;100530.34;;;3.71;100.00
14612;BME280;7392;52.078;11.650;2023-01-10T04:26:17;100540.78;;;3.68;100.00
14612;BME280;7392;52.078;11.650;2023-01-10T04:28:45;100546.88;;;3.67;100.00
14612;BME280;7392;52.078;11.650;2023-01-10T04:31:13;100555.63;;;3.66;100.00
14612;BME280;7392;52.078;11.650;2023-01-10T04:33:40;100553.81;;;3.65;100.00
14612;BME280;7392;52.078;11.650;2023-01-10T04:36:08;100555.50;;;3.61;100.00
14612;BME280;7392;52.078;11.650;2023-01-10T04:38:35;100551.91;;;3.58;100.00
14612;BME280;7392;52.078;11.650;2023-01-10T04:41:04;100561.50;;;3.55;100.00
14612;BME280;7392;52.078;11.650;2023-01-10T04:43:32;100570.22;;;3.54;100.00
14612;BME280;7392;52.078;11.650;2023-01-10T04:45:59;100563.19;;;3.52;100.00
14612;BME280;7392;52.078;11.650;2023-01-10T04:48:27;100573.69;;;3.52;100.00
14612;BME280;7392;52.078;11.650;2023-01-10T04:50:55;100570.06;;;3.48;100.00
14612;BME280;7392;52.078;11.650;2023-01-10T04:53:22;100579.66;;;3.46;100.00
14612;BME280;7392;52.078;11.650;2023-01-10T04:55:50;100587.50;;;3.45;100.00
14612;BME280;7392;52.078;11.650;2023-01-10T04:58:19;100585.69;;;3.42;100.00
14612;BME280;7392;52.078;11.650;2023-01-10T05:00:46;100589.13;;;3.40;100.00
14612;BME280;7392;52.078;11.650;2023-01-10T05:03:14;100583.81;;;3.36;100.00
14612;BME280;7392;52.078;11.650;2023-01-10T05:05:45;100592.50;;;3.34;100.00
14612;BME280;7392;52.078;11.650;2023-01-10T05:08:13;100597.66;;;3.31;100.00
14612;BME280;7392;52.078;11.650;2023-01-10T05:10:40;100601.94;;;3.27;100.00
14612;BME280;7392;52.078;11.650;2023-01-10T05:13:08;100603.66;;;3.25;100.00
14612;BME280;7392;52.078;11.650;2023-01-10T05:15:37;100612.28;;;3.21;100.00
14612;BME280;7392;52.078;11.650;2023-01-10T05:18:04;100621.84;;;3.19;100.00
14612;BME280;7392;52.078;11.650;2023-01-10T05:20:32;100621.78;;;3.16;100.00
14612;BME280;7392;52.078;11.650;2023-01-10T05:22:59;100631.34;;;3.14;100.00
14612;BME280;7392;52.078;11.650;2023-01-10T05:25:27;100626.97;;;3.13;100.00
14612;BME280;7392;52.078;11.650;2023-01-10T05:27:54;100637.38;;;3.10;100.00
14612;BME280;7392;52.078;11.650;2023-01-10T05:30:22;100645.22;;;3.08;100.00
14612;BME280;7392;52.078;11.650;2023-01-10T05:32:51;100645.13;;;3.05;100.00
14612;BME280;7392;52.078;11.650;2023-01-10T05:35:18;100656.50;;;3.06;100.00
14612;BME280;7392;52.078;11.650;2023-01-10T05:37:46;100661.69;;;3.03;100.00
14612;BME280;7392;52.078;11.650;2023-01-10T05:40:13;100658.16;;;3.02;100.00
14612;BME280;7392;52.078;11.650;2023-01-10T05:42:41;100664.28;;;3.01;100.00
14612;BME280;7392;52.078;11.650;2023-01-10T05:45:09;100673.91;;;3.02;100.00
14612;BME280;7392;52.078;11.650;2023-01-10T05:47:37;100677.47;;;3.04;100.00
14612;BME280;7392;52.078;11.650;2023-01-10T05:50:08;100683.66;;;3.06;100.00
14612;BME280;7392;52.078;11.650;2023-01-10T05:52:35;100682.91;;;3.12;100.00
14612;BME280;7392;52.078;11.650;2023-01-10T05:55:03;100682.97;;;3.13;100.00
14612;BME280;7392;52.078;11.650;2023-01-10T05:57:31;100690.09;;;3.19;100.00
14612;BME280;7392;52.078;11.650;2023-01-10T05:59:59;100699.81;;;3.22;100.00
14612;BME280;7392;52.078;11.650;2023-01-10T06:02:36;100709.53;;;3.26;100.00
14612;BME280;7392;52.078;11.650;2023-01-10T06:05:06;100717.50;;;3.29;100.00
14612;BME280;7392;52.078;11.650;2023-01-10T06:07:34;100728.88;;;3.29;100.00
14612;BME280;7392;52.078;11.650;2023-01-10T06:10:02;100737.69;;;3.30;100.00
14612;BME280;7392;52.078;11.650;2023-01-10T06:12:30;100735.84;;;3.27;100.00
14612;BME280;7392;52.078;11.650;2023-01-10T06:14:57;100744.69;;;3.31;100.00
14612;BME280;7392;52.078;11.650;2023-01-10T06:17:25;100748.19;;;3.30;100.00
14612;BME280;7392;52.078;11.650;2023-01-10T06:19:53;100750.84;;;3.31;100.00
14612;BME280;7392;52.078;11.650;2023-01-10T06:22:22;100755.28;;;3.34;100.00
14612;BME280;7392;52.078;11.650;2023-01-10T06:24:51;100764.00;;;3.33;100.00
14612;BME280;7392;52.078;11.650;2023-01-10T06:27:19;100766.69;;;3.36;100.00
14612;BME280;7392;52.078;11.650;2023-01-10T06:29:47;100771.25;;;3.42;100.00
14612;BME280;7392;52.078;11.650;2023-01-10T06:32:14;100766.97;;;3.45;100.00
14612;BME280;7392;52.078;11.650;2023-01-10T06:34:42;100781.13;;;3.50;100.00
14612;BME280;7392;52.078;11.650;2023-01-10T06:37:09;100782.91;;;3.53;100.00
14612;BME280;7392;52.078;11.650;2023-01-10T06:39:38;100793.56;;;3.58;100.00
14612;BME280;7392;52.078;11.650;2023-01-10T06:42:06;100787.50;;;3.60;100.00
14612;BME280;7392;52.078;11.650;2023-01-10T06:44:33;100797.28;;;3.66;100.00
14612;BME280;7392;52.078;11.650;2023-01-10T06:47:01;100811.41;;;3.69;100.00
14612;BME280;7392;52.078;11.650;2023-01-10T06:49:28;100819.41;;;3.75;100.00
14612;BME280;7392;52.078;11.650;2023-01-10T06:51:56;100815.13;;;3.78;100.00
14612;BME280;7392;52.078;11.650;2023-01-10T06:54:24;100828.31;;;3.81;100.00
14612;BME280;7392;52.078;11.650;2023-01-10T06:56:52;100831.91;;;3.84;100.00
14612;BME280;7392;52.078;11.650;2023-01-10T06:59:20;100839.00;;;3.87;100.00
14612;BME280;7392;52.078;11.650;2023-01-10T07:01:47;100843.41;;;3.88;100.00
14612;BME280;7392;52.078;11.650;2023-01-10T07:04:15;100841.72;;;3.90;100.00
14612;BME280;7392;52.078;11.650;2023-01-10T07:06:43;100844.38;;;3.91;100.00
14612;BME280;7392;52.078;11.650;2023-01-10T07:09:10;100847.03;;;3.91;100.00
14612;BME280;7392;52.078;11.650;2023-01-10T07:11:38;100854.94;;;3.93;100.00
14612;BME280;7392;52.078;11.650;2023-01-10T07:14:07;100858.53;;;3.97;100.00
14612;BME280;7392;52.078;11.650;2023-01-10T07:16:35;100862.09;;;3.99;100.00
14612;BME280;7392;52.078;11.650;2023-01-10T07:19:02;100870.84;;;3.99;100.00
14612;BME280;7392;52.078;11.650;2023-01-10T07:21:30;100871.81;;;4.03;100.00
14612;BME280;7392;52.078;11.650;2023-01-10T07:23:57;100885.88;;;4.03;100.00
14612;BME280;7392;52.078;11.650;2023-01-10T07:26:28;100892.84;;;4.03;100.00
14612;BME280;7392;52.078;11.650;2023-01-10T07:28:55;100898.16;;;4.04;100.00
14612;BME280;7392;52.078;11.650;2023-01-10T07:31:24;100902.53;;;4.04;100.00
14612;BME280;7392;52.078;11.650;2023-01-10T07:33:52;100908.66;;;4.04;100.00
14612;BME280;7392;52.078;11.650;2023-01-10T07:36:20;100912.22;;;4.05;100.00
14612;BME280;7392;52.078;11.650;2023-01-10T07:38:49;100910.47;;;4.05;100.00
14612;BME280;7392;52.078;11.650;2023-01-10T07:41:16;100911.34;;;4.06;100.00
14612;BME280;7392;52.078;11.650;2023-01-10T07:43:44;100910.47;;;4.05;100.00
14612;BME280;7392;52.078;11.650;2023-01-10T07:46:11;100925.38;;;4.06;100.00
14612;BME280;7392;52.078;11.650;2023-01-10T07:48:41;100930.63;;;4.05;100.00
14612;BME280;7392;52.078;11.650;2023-01-10T07:51:08;100926.19;;;4.04;100.00
14612;BME280;7392;52.078;11.650;2023-01-10T07:53:36;100929.59;;;4.01;100.00
14612;BME280;7392;52.078;11.650;2023-01-10T07:56:05;100941.03;;;4.02;100.00
14612;BME280;7392;52.078;11.650;2023-01-10T07:58:33;100950.63;;;4.01;100.00
14612;BME280;7392;52.078;11.650;2023-01-10T08:01:02;100951.50;;;4.00;100.00
14612;BME280;7392;52.078;11.650;2023-01-10T08:03:30;100959.41;;;4.00;100.00
14612;BME280;7392;52.078;11.650;2023-01-10T08:06:02;100961.97;;;3.99;100.00
14612;BME280;7392;52.078;11.650;2023-01-10T08:08:31;100962.81;;;3.98;100.00
14612;BME280;7392;52.078;11.650;2023-01-10T08:10:59;100970.75;;;3.99;100.00
14612;BME280;7392;52.078;11.650;2023-01-10T08:13:28;100981.25;;;3.99;100.00
14612;BME280;7392;52.078;11.650;2023-01-10T08:15:56;100973.41;;;4.01;100.00
14612;BME280;7392;52.078;11.650;2023-01-10T08:18:24;100980.41;;;4.00;100.00
14612;BME280;7392;52.078;11.650;2023-01-10T08:20:53;100985.72;;;4.02;100.00
14612;BME280;7392;52.078;11.650;2023-01-10T08:23:22;100985.81;;;4.05;100.00
14612;BME280;7392;52.078;11.650;2023-01-10T08:25:49;100983.19;;;4.06;100.00
14612;BME280;7392;52.078;11.650;2023-01-10T08:28:17;100984.16;;;4.08;100.00
14612;BME280;7392;52.078;11.650;2023-01-10T08:30:45;100986.84;;;4.10;100.00
14612;BME280;7392;52.078;11.650;2023-01-10T08:33:15;100980.72;;;4.11;100.00
14612;BME280;7392;52.078;11.650;2023-01-10T08:35:43;100988.69;;;4.14;100.00
14612;BME280;7392;52.078;11.650;2023-01-10T08:38:10;100990.50;;;4.17;100.00
14612;BME280;7392;52.078;11.650;2023-01-10T08:40:39;100994.91;;;4.18;100.00
14612;BME280;7392;52.078;11.650;2023-01-10T08:43:10;100994.13;;;4.20;100.00
14612;BME280;7392;52.078;11.650;2023-01-10T08:45:38;101003.00;;;4.24;100.00
14612;BME280;7392;52.078;11.650;2023-01-10T08:48:06;101016.19;;;4.27;100.00
14612;BME280;7392;52.078;11.650;2023-01-10T08:50:35;101005.72;;;4.28;100.00
14612;BME280;7392;52.078;11.650;2023-01-10T08:53:03;101011.97;;;4.32;100.00
14612;BME280;7392;52.078;11.650;2023-01-10T08:55:31;101016.44;;;4.35;100.00
14612;BME280;7392;52.078;11.650;2023-01-10T08:58:01;101007.72;;;4.37;100.00
14612;BME280;7392;52.078;11.650;2023-01-10T09:00:29;101014.78;;;4.38;100.00
14612;BME280;7392;52.078;11.650;2023-01-10T09:02:57;101026.25;;;4.42;100.00
14612;BME280;7392;52.078;11.650;2023-01-10T09:05:25;101021.00;;;4.42;100.00
14612;BME280;7392;52.078;11.650;2023-01-10T09:07:57;101021.09;;;4.45;100.00
14612;BME280;7392;52.078;11.650;2023-01-10T09:10:25;101015.03;;;4.49;100.00
14612;BME280;7392;52.078;11.650;2023-01-10T09:12:53;101026.53;;;4.53;100.00
14612;BME280;7392;52.078;11.650;2023-01-10T09:15:23;101025.75;;;4.55;100.00
14612;BME280;7392;52.078;11.650;2023-01-10T09:17:52;101031.09;;;4.58;100.00
14612;BME280;7392;52.078;11.650;2023-01-10T09:20:20;101036.50;;;4.63;100.00
14612;BME280;7392;52.078;11.650;2023-01-10T09:22:48;101043.59;;;4.67;100.00
14612;BME280;7392;52.078;11.650;2023-01-10T09:25:15;101034.06;;;4.71;100.00
14612;BME280;7392;52.078;11.650;2023-01-10T09:27:43;101028.88;;;4.74;100.00
14612;BME280;7392;52.078;11.650;2023-01-10T09:30:11;101039.50;;;4.77;100.00
14612;BME280;7392;52.078;11.650;2023-01-10T09:32:40;101046.56;;;4.79;100.00
14612;BME280;7392;52.078;11.650;2023-01-10T09:35:08;101047.47;;;4.81;100.00
14612;BME280;7392;52.078;11.650;2023-01-10T09:37:35;101054.59;;;4.84;100.00
14612;BME280;7392;52.078;11.650;2023-01-10T09:40:05;101056.44;;;4.88;100.00
14612;BME280;7392;52.078;11.650;2023-01-10T09:42:49;101059.97;;;4.89;100.00
14612;BME280;7392;52.078;11.650;2023-01-10T09:45:20;101066.25;;;4.94;100.00
14612;BME280;7392;52.078;11.650;2023-01-10T09:47:54;101075.94;;;4.96;100.00
14612;BME280;7392;52.078;11.650;2023-01-10T09:50:31;101079.47;;;4.97;100.00
14612;BME280;7392;52.078;11.650;2023-01-10T09:53:07;101084.78;;;4.98;100.00
14612;BME280;7392;52.078;11.650;2023-01-10T09:55:37;101093.63;;;5.02;100.00
14612;BME280;7392;52.078;11.650;2023-01-10T09:58:10;101092.81;;;5.03;100.00
14612;BME280;7392;52.078;11.650;2023-01-10T10:00:42;101089.28;;;5.02;100.00
14612;BME280;7392;52.078;11.650;2023-01-10T10:03:19;101091.03;;;5.03;100.00
14612;BME280;7392;52.078;11.650;2023-01-10T10:05:50;101087.56;;;5.04;100.00
14612;BME280;7392;52.078;11.650;2023-01-10T10:08:23;101079.75;;;5.08;100.00
14612;BME280;7392;52.078;11.650;2023-01-10T10:10:59;101071.03;;;5.10;100.00
14612;BME280;7392;52.078;11.650;2023-01-10T10:13:39;101062.38;;;5.16;100.00
14612;BME280;7392;52.078;11.650;2023-01-10T10:16:13;101069.00;;;5.33;100.00
14612;BME280;7392;52.078;11.650;2023-01-10T10:18:56;101073.78;;;5.51;100.00
14612;BME280;7392;52.078;11.650;2023-01-10T10:21:33;101068.72;;;5.59;100.00
14612;BME280;7392;52.078;11.650;2023-01-10T10:24:17;101072.31;;;5.62;100.00
14612;BME280;7392;52.078;11.650;2023-01-10T10:26:55;101063.53;;;5.62;100.00
14612;BME280;7392;52.078;11.650;2023-01-10T10:29:39;101065.63;;;5.78;100.00
14612;BME280;7392;52.078;11.650;2023-01-10T10:32:30;101069.72;;;6.02;100.00
14612;BME280;7392;52.078;11.650;2023-01-10T10:35:07;101071.97;;;6.26;100.00
14612;BME280;7392;52.078;11.650;2023-01-10T10:37:40;101073.16;;;6.41;100.00
14612;BME280;7392;52.078;11.650;2023-01-10T10:40:15;101079.38;;;6.44;100.00
14612;BME280;7392;52.078;11.650;2023-01-10T10:42:46;101076.72;;;6.43;100.00
14612;BME280;7392;52.078;11.650;2023-01-10T10:45:17;101079.28;;;6.40;100.00
14612;BME280;7392;52.078;11.650;2023-01-10T10:47:50;101080.22;;;6.43;100.00
14612;BME280;7392;52.078;11.650;2023-01-10T10:50:25;101090.31;;;6.64;100.00
14612;BME280;7392;52.078;11.650;2023-01-10T10:52:55;101085.19;;;6.72;100.00
14612;BME280;7392;52.078;11.650;2023-01-10T10:55:28;101089.63;;;6.73;100.00
14612;BME280;7392;52.078;11.650;2023-01-10T10:57:57;101090.44;;;6.70;100.00
14612;BME280;7392;52.078;11.650;2023-01-10T11:00:28;101085.97;;;6.66;100.00
14612;BME280;7392;52.078;11.650;2023-01-10T11:02:59;101089.38;;;6.62;100.00
14612;BME280;7392;52.078;11.650;2023-01-10T11:05:35;101085.84;;;6.60;100.00
14612;BME280;7392;52.078;11.650;2023-01-10T11:08:05;101082.28;;;6.58;100.00
14612;BME280;7392;52.078;11.650;2023-01-10T11:10:36;101084.03;;;6.58;100.00
14612;BME280;7392;52.078;11.650;2023-01-10T11:13:11;101089.25;;;6.54;100.00
14612;BME280;7392;52.078;11.650;2023-01-10T11:15:41;101082.28;;;6.58;100.00
14612;BME280;7392;52.078;11.650;2023-01-10T11:18:11;101089.34;;;6.61;100.00
14612;BME280;7392;52.078;11.650;2023-01-10T11:20:51;101098.28;;;6.67;100.00
14612;BME280;7392;52.078;11.650;2023-01-10T11:23:27;101083.41;;;6.71;100.00
14612;BME280;7392;52.078;11.650;2023-01-10T11:25:56;101093.16;;;6.75;100.00
14612;BME280;7392;52.078;11.650;2023-01-10T11:28:26;101086.16;;;6.77;100.00
14612;BME280;7392;52.078;11.650;2023-01-10T11:30:55;101096.72;;;6.77;99.33
14612;BME280;7392;52.078;11.650;2023-01-10T11:33:27;101103.72;;;6.75;99.54
14612;BME280;7392;52.078;11.650;2023-01-10T11:35:59;101100.19;;;6.73;99.49
14612;BME280;7392;52.078;11.650;2023-01-10T11:38:28;101101.03;;;6.72;99.08
14612;BME280;7392;52.078;11.650;2023-01-10T11:40:58;101101.03;;;6.72;99.51
14612;BME280;7392;52.078;11.650;2023-01-10T11:43:30;101098.41;;;6.73;99.56
14612;BME280;7392;52.078;11.650;2023-01-10T11:46:00;101100.16;;;6.71;99.06
14612;BME280;7392;52.078;11.650;2023-01-10T11:48:42;101108.03;;;6.70;98.96
14612;BME280;7392;52.078;11.650;2023-01-10T11:51:33;101117.69;;;6.69;98.72
14612;BME280;7392;52.078;11.650;2023-01-10T11:54:04;101114.16;;;6.69;99.11
14612;BME280;7392;52.078;11.650;2023-01-10T11:56:35;101117.69;;;6.69;99.41
14612;BME280;7392;52.078;11.650;2023-01-10T11:59:11;101123.84;;;6.68;99.59
14612;BME280;7392;52.078;11.650;2023-01-10T12:01:41;101115.03;;;6.68;99.41
14612;BME280;7392;52.078;11.650;2023-01-10T12:04:13;101122.00;;;6.66;99.74
14612;BME280;7392;52.078;11.650;2023-01-10T12:06:44;101117.66;;;6.66;99.80
14612;BME280;7392;52.078;11.650;2023-01-10T12:09:33;101113.25;;;6.67;100.00
14612;BME280;7392;52.078;11.650;2023-01-10T12:12:01;101114.13;;;6.67;100.00
14612;BME280;7392;52.078;11.650;2023-01-10T12:14:29;101116.81;;;6.69;100.00
14612;BME280;7392;52.078;11.650;2023-01-10T12:16:58;101115.03;;;6.69;100.00
14612;BME280;7392;52.078;11.650;2023-01-10T12:19:27;101115.06;;;6.71;100.00
14612;BME280;7392;52.078;11.650;2023-01-10T12:21:59;101125.66;;;6.72;100.00
14612;BME280;7392;52.078;11.650;2023-01-10T12:24:31;101123.03;;;6.72;100.00
14612;BME280;7392;52.078;11.650;2023-01-10T12:27:02;101120.41;;;6.74;100.00
14612;BME280;7392;52.078;11.650;2023-01-10T12:29:32;101120.38;;;6.72;100.00
14612;BME280;7392;52.078;11.650;2023-01-10T12:32:02;101126.59;;;6.74;100.00
14612;BME280;7392;52.078;11.650;2023-01-10T12:34:35;101131.00;;;6.76;100.00
14612;BME280;7392;52.078;11.650;2023-01-10T12:37:16;101131.00;;;6.76;100.00
14612;BME280;7392;52.078;11.650;2023-01-10T12:39:48;101127.53;;;6.77;100.00
14612;BME280;7392;52.078;11.650;2023-01-10T12:42:23;101121.38;;;6.78;100.00
14612;BME280;7392;52.078;11.650;2023-01-10T12:45:14;101124.03;;;6.79;100.00
14612;BME280;7392;52.078;11.650;2023-01-10T12:47:52;101124.06;;;6.81;99.84
14612;BME280;7392;52.078;11.650;2023-01-10T12:50:23;101119.69;;;6.83;99.68
14612;BME280;7392;52.078;11.650;2023-01-10T12:52:58;101112.66;;;6.82;99.91
14612;BME280;7392;52.078;11.650;2023-01-10T12:55:29;101118.88;;;6.85;100.00
14612;BME280;7392;52.078;11.650;2023-01-10T12:58:02;101125.97;;;6.88;100.00
14612;BME280;7392;52.078;11.650;2023-01-10T13:00:35;101126.00;;;6.89;100.00
14612;BME280;7392;52.078;11.650;2023-01-10T13:03:18;101119.84;;;6.89;100.00
14612;BME280;7392;52.078;11.650;2023-01-10T13:05:46;101119.81;;;6.87;99.94
14612;BME280;7392;52.078;11.650;2023-01-10T13:08:20;101133.00;;;6.87;99.89
14612;BME280;7392;52.078;11.650;2023-01-10T13:10:51;101136.50;;;6.86;99.30